createdAt,value
2018-10-04T00:01:23.985Z,16.07
2018-10-04T00:03:58.943Z,8.13
2018-10-04T00:06:33.525Z,14.33
2018-10-04T00:09:07.759Z,14.47
2018-10-04T00:11:42.580Z,13.10
2018-10-04T00:14:16.709Z,16.13
2018-10-04T00:16:53.533Z,17.07
2018-10-04T00:19:29.178Z,13.10
2018-10-04T00:22:03.569Z,14.73
2018-10-04T00:24:38.373Z,14.30
2018-10-04T00:27:12.467Z,18.67
2018-10-04T00:29:46.893Z,14.60
2018-10-04T00:32:21.250Z,12.73
2018-10-04T00:34:55.309Z,14.07
2018-10-04T00:37:30.104Z,19.07
2018-10-04T00:40:04.848Z,12.77
2018-10-04T00:42:40.218Z,17.27
2018-10-04T00:45:14.318Z,15.37
2018-10-04T00:47:48.519Z,18.43
2018-10-04T00:50:23.488Z,15.87
2018-10-04T00:52:58.867Z,14.27
2018-10-04T00:55:32.831Z,19.77
2018-10-04T00:58:06.834Z,19.87
2018-10-04T01:00:41.555Z,15.80
2018-10-04T01:03:16.176Z,16.77
2018-10-04T01:05:50.335Z,12.67
2018-10-04T01:08:24.958Z,14.23
2018-10-04T01:10:58.884Z,16.73
2018-10-04T01:13:33.003Z,20.77
2018-10-04T01:16:07.548Z,16.07
2018-10-04T01:18:54.773Z,15.80
2018-10-04T01:21:30.063Z,16.27
2018-10-04T01:24:04.103Z,15.70
2018-10-04T01:26:38.184Z,14.77
2018-10-04T01:29:12.209Z,14.07
2018-10-04T01:31:46.130Z,21.50
2018-10-04T01:34:20.558Z,15.40
2018-10-04T01:36:55.585Z,21.17
2018-10-04T01:39:29.689Z,17.03
2018-10-04T01:42:03.739Z,13.83
2018-10-04T01:44:39.069Z,16.97
2018-10-04T01:47:13.088Z,14.33
2018-10-04T01:49:47.547Z,17.83
2018-10-04T01:52:21.611Z,13.83
2018-10-04T01:54:56.032Z,15.27
2018-10-04T01:57:30.561Z,14.63
2018-10-04T02:00:04.598Z,16.53
2018-10-04T02:02:39.074Z,14.10
2018-10-04T02:05:13.166Z,17.47
2018-10-04T02:07:47.202Z,16.40
2018-10-04T02:10:21.704Z,16.87
2018-10-04T02:12:56.482Z,24.47
2018-10-04T02:15:30.559Z,20.33
2018-10-04T02:18:04.567Z,15.87
2018-10-04T02:20:39.410Z,19.63
2018-10-04T02:23:14.208Z,16.07
2018-10-04T02:25:48.548Z,19.33
2018-10-04T02:28:22.685Z,18.27
2018-10-04T02:30:56.759Z,17.03
2018-10-04T02:33:31.545Z,22.00
2018-10-04T02:36:05.763Z,21.70
2018-10-04T02:38:39.723Z,22.13
2018-10-04T02:41:14.305Z,14.60
2018-10-04T02:43:48.567Z,15.00
2018-10-04T02:46:22.974Z,14.47
2018-10-04T02:48:57.582Z,14.97
2018-10-04T02:51:31.907Z,15.20
2018-10-04T02:54:05.888Z,14.67
2018-10-04T02:56:45.800Z,18.03
2018-10-04T02:59:20.189Z,15.77
2018-10-04T03:01:54.108Z,13.93
2018-10-04T03:04:28.223Z,14.90
2018-10-04T03:07:02.188Z,17.37
2018-10-04T03:09:36.347Z,17.03
2018-10-04T03:12:10.421Z,15.17
2018-10-04T03:14:44.543Z,13.93
2018-10-04T03:17:18.580Z,19.10
2018-10-04T03:19:53.217Z,14.17
2018-10-04T03:22:28.468Z,13.87
2018-10-04T03:25:02.797Z,19.73
2018-10-04T03:27:37.297Z,13.97
2018-10-04T03:30:11.570Z,12.70
2018-10-04T03:32:45.562Z,15.67
2018-10-04T03:35:19.617Z,16.87
2018-10-04T03:37:53.743Z,12.63
2018-10-04T03:40:28.259Z,14.43
2018-10-04T03:43:02.982Z,14.93
2018-10-04T03:45:37.098Z,15.23
2018-10-04T03:48:11.929Z,14.93
2018-10-04T03:50:45.825Z,18.70
2018-10-04T03:53:19.972Z,16.40
2018-10-04T03:55:54.048Z,15.77
2018-10-04T03:58:28.440Z,13.60
2018-10-04T04:01:02.508Z,15.73
2018-10-04T04:03:37.279Z,15.07
2018-10-04T04:06:11.375Z,18.20
2018-10-04T04:08:45.439Z,18.30
2018-10-04T04:11:20.327Z,22.73
2018-10-04T04:13:54.503Z,20.90
2018-10-04T04:16:28.528Z,21.37
2018-10-04T04:19:02.825Z,22.20
2018-10-04T04:21:36.949Z,20.33
2018-10-04T04:24:11.129Z,14.23
2018-10-04T04:26:45.463Z,17.50
2018-10-04T04:29:20.616Z,21.27
2018-10-04T04:31:55.180Z,17.57
2018-10-04T04:34:29.147Z,17.13
2018-10-04T04:37:03.220Z,15.20
2018-10-04T04:39:37.368Z,12.00
2018-10-04T04:42:11.408Z,16.17
2018-10-04T04:44:45.793Z,14.67
2018-10-04T04:47:19.684Z,14.80
2018-10-04T04:49:54.326Z,16.63
2018-10-04T04:52:28.437Z,15.03
2018-10-04T04:55:21.013Z,13.90
2018-10-04T04:57:56.140Z,10.53
2018-10-04T05:00:31.193Z,11.50
2018-10-04T05:03:05.533Z,17.57
2018-10-04T05:05:39.598Z,15.67
2018-10-04T05:08:14.257Z,13.13
2018-10-04T05:10:49.142Z,13.30
2018-10-04T05:13:22.966Z,14.37
2018-10-04T05:15:57.178Z,14.20
2018-10-04T05:18:31.372Z,14.60
2018-10-04T05:21:06.048Z,16.27
2018-10-04T05:23:40.104Z,19.37
2018-10-04T05:26:14.703Z,16.00
2018-10-04T05:28:48.798Z,18.47
2018-10-04T05:31:22.839Z,16.70
2018-10-04T05:33:57.235Z,10.83
2018-10-04T05:36:31.164Z,26.50
2018-10-04T05:39:06.108Z,12.40
2018-10-04T05:41:40.454Z,14.93
2018-10-04T05:44:14.898Z,12.70
2018-10-04T05:46:49.498Z,19.13
2018-10-04T05:49:23.647Z,13.83
2018-10-04T05:51:57.748Z,14.13
2018-10-04T05:54:31.847Z,20.57
2018-10-04T05:57:05.843Z,16.90
2018-10-04T05:59:39.697Z,19.60
2018-10-04T06:02:13.550Z,21.53
2018-10-04T06:04:47.706Z,19.50
2018-10-04T06:07:22.674Z,17.83
2018-10-04T06:09:56.810Z,19.13
2018-10-04T06:12:31.685Z,14.17
2018-10-04T06:15:05.963Z,19.10
2018-10-04T06:17:40.103Z,17.23
2018-10-04T06:20:14.422Z,22.93
2018-10-04T06:22:49.498Z,24.37
2018-10-04T06:25:23.659Z,23.30
2018-10-04T06:27:57.383Z,17.73
2018-10-04T06:30:32.549Z,20.53
2018-10-04T06:33:06.628Z,20.63
2018-10-04T06:35:40.648Z,17.47
2018-10-04T06:38:14.754Z,22.63
2018-10-04T06:40:49.169Z,25.30
2018-10-04T06:43:24.003Z,25.40
2018-10-04T06:45:59.384Z,23.10
2018-10-04T06:48:33.579Z,24.13
2018-10-04T06:51:09.435Z,23.37
2018-10-04T06:53:43.679Z,25.63
2018-10-04T06:56:19.060Z,25.80
2018-10-04T06:58:53.167Z,22.90
2018-10-04T07:01:27.192Z,26.67
2018-10-04T07:04:00.898Z,21.47
2018-10-04T07:06:40.879Z,24.57
2018-10-04T07:09:15.954Z,23.13
2018-10-04T07:11:50.080Z,23.83
2018-10-04T07:14:24.422Z,25.30
2018-10-04T07:16:59.245Z,29.73
2018-10-04T07:19:33.474Z,23.90
2018-10-04T07:22:07.619Z,24.30
2018-10-04T07:24:41.702Z,22.37
2018-10-04T07:27:16.268Z,20.10
2018-10-04T07:29:50.983Z,18.23
2018-10-04T07:32:24.847Z,19.60
2018-10-04T07:34:59.059Z,27.83
2018-10-04T07:37:34.029Z,20.30
2018-10-04T07:40:08.510Z,19.73
2018-10-04T07:42:42.925Z,17.33
2018-10-04T07:45:17.488Z,14.80
2018-10-04T07:47:52.308Z,15.73
2018-10-04T07:50:26.385Z,19.20
2018-10-04T07:53:01.308Z,16.43
2018-10-04T07:55:35.985Z,17.70
2018-10-04T07:58:10.373Z,16.77
2018-10-04T08:00:45.138Z,19.03
2018-10-04T08:03:19.294Z,14.90
2018-10-04T08:05:53.587Z,21.27
2018-10-04T08:08:28.857Z,17.87
2018-10-04T08:11:03.815Z,19.97
2018-10-04T08:13:38.320Z,13.23
2018-10-04T08:16:12.573Z,17.23
2018-10-04T08:18:46.570Z,12.13
2018-10-04T08:21:20.753Z,16.97
2018-10-04T08:23:54.905Z,17.63
2018-10-04T08:26:29.448Z,16.23
2018-10-04T08:29:03.988Z,13.63
2018-10-04T08:31:38.265Z,14.27
2018-10-04T08:34:13.084Z,12.70
2018-10-04T08:36:47.335Z,16.30
2018-10-04T08:39:21.443Z,15.53
2018-10-04T08:41:55.765Z,13.53
2018-10-04T08:44:30.134Z,11.23
2018-10-04T08:47:05.009Z,15.23
2018-10-04T08:49:39.499Z,11.70
2018-10-04T08:52:19.454Z,14.23
2018-10-04T08:54:53.916Z,14.70
2018-10-04T08:57:27.933Z,14.87
2018-10-04T09:00:02.469Z,10.80
2018-10-04T09:02:36.535Z,18.30
2018-10-04T09:05:10.368Z,11.70
2018-10-04T09:07:44.241Z,13.47
2018-10-04T09:10:19.115Z,12.57
2018-10-04T09:12:53.393Z,14.00
2018-10-04T09:15:27.589Z,12.17
2018-10-04T09:18:01.648Z,13.60
2018-10-04T09:20:36.231Z,10.33
2018-10-04T09:23:10.881Z,17.47
2018-10-04T09:25:45.026Z,15.10
2018-10-04T09:28:19.180Z,15.50
2018-10-04T09:30:58.506Z,13.53
2018-10-04T09:33:32.859Z,12.03
2018-10-04T09:36:07.460Z,12.20
2018-10-04T09:38:41.710Z,13.57
2018-10-04T09:41:17.469Z,11.50
2018-10-04T09:43:51.234Z,10.27
2018-10-04T09:46:26.361Z,14.97
2018-10-04T09:49:00.485Z,15.33
2018-10-04T09:51:40.464Z,14.23
2018-10-04T09:54:20.037Z,18.40
2018-10-04T09:56:54.007Z,14.93
2018-10-04T09:59:28.238Z,12.60
2018-10-04T10:02:08.483Z,11.30
2018-10-04T10:04:42.363Z,14.23
2018-10-04T10:07:16.277Z,13.13
2018-10-04T10:09:50.412Z,11.47
2018-10-04T10:12:24.518Z,14.50
2018-10-04T10:14:58.718Z,14.93
2018-10-04T10:17:32.614Z,12.53
2018-10-04T10:20:06.758Z,12.50
2018-10-04T10:22:41.592Z,10.03
2018-10-04T10:25:16.492Z,10.30
2018-10-04T10:27:50.340Z,14.03
2018-10-04T10:30:25.402Z,12.40
2018-10-04T10:32:59.675Z,12.50
2018-10-04T10:35:34.047Z,14.03
2018-10-04T10:38:08.284Z,13.37
2018-10-04T10:40:42.498Z,17.10
2018-10-04T10:43:16.632Z,14.33
2018-10-04T10:45:51.043Z,11.57
2018-10-04T10:48:25.384Z,13.07
2018-10-04T10:50:59.589Z,12.97
2018-10-04T10:53:34.448Z,13.00
2018-10-04T10:56:09.397Z,14.83
2018-10-04T10:58:43.479Z,16.13
2018-10-04T11:01:17.637Z,13.00
2018-10-04T11:03:51.654Z,15.13
2018-10-04T11:06:26.217Z,14.33
2018-10-04T11:09:00.724Z,12.70
2018-10-04T11:11:34.657Z,13.73
2018-10-04T11:14:09.065Z,11.57
2018-10-04T11:16:43.268Z,13.00
2018-10-04T11:19:17.994Z,13.53
2018-10-04T11:21:52.075Z,9.53
2018-10-04T11:24:26.205Z,11.03
2018-10-04T11:27:00.533Z,11.37
2018-10-04T11:29:34.687Z,12.63
2018-10-04T11:32:09.102Z,12.80
2018-10-04T11:34:43.582Z,11.00
2018-10-04T11:37:17.919Z,13.27
2018-10-04T11:39:52.726Z,12.37
2018-10-04T11:42:27.065Z,13.93
2018-10-04T11:45:04.148Z,11.63
2018-10-04T11:47:39.779Z,12.57
2018-10-04T11:50:22.616Z,13.03
2018-10-04T11:52:56.627Z,14.27
2018-10-04T11:55:30.727Z,12.03
2018-10-04T11:58:05.484Z,14.07
2018-10-04T12:00:39.823Z,14.73
2018-10-04T12:03:13.680Z,11.33
2018-10-04T12:05:47.928Z,12.47
2018-10-04T12:08:22.364Z,13.40
2018-10-04T12:10:57.244Z,12.33
2018-10-04T12:13:32.026Z,10.63
2018-10-04T12:16:06.194Z,13.17
2018-10-04T12:18:40.158Z,14.23
2018-10-04T12:21:14.363Z,12.00
2018-10-04T12:23:55.364Z,11.73
2018-10-04T12:26:29.573Z,12.53
2018-10-04T12:29:04.253Z,12.35
2018-10-04T12:31:38.429Z,11.97
2018-10-04T12:34:12.293Z,10.20
2018-10-04T12:36:46.189Z,10.08
2018-10-04T12:39:20.682Z,13.37
2018-10-04T12:41:55.104Z,10.50
2018-10-04T12:44:29.373Z,13.80
2018-10-04T12:47:03.352Z,10.85
2018-10-04T12:49:37.582Z,12.10
2018-10-04T12:52:11.770Z,12.23
2018-10-04T12:54:45.759Z,14.60
2018-10-04T12:57:22.719Z,11.10
2018-10-04T12:59:56.653Z,12.43
2018-10-04T13:02:31.587Z,13.15
2018-10-04T13:05:05.714Z,10.75
2018-10-04T13:07:39.907Z,12.25
2018-10-04T13:10:14.024Z,8.55
2018-10-04T13:12:48.243Z,12.53
2018-10-04T13:15:22.917Z,10.68
2018-10-04T13:17:57.150Z,7.92
2018-10-04T13:20:31.354Z,9.93
2018-10-04T13:23:06.258Z,10.03
2018-10-04T13:25:40.923Z,8.33
2018-10-04T13:28:15.399Z,7.62
2018-10-04T13:30:49.671Z,10.00
2018-10-04T13:33:23.641Z,9.33
2018-10-04T13:35:57.949Z,10.63
2018-10-04T13:38:32.261Z,11.30
2018-10-04T13:41:06.818Z,11.53
2018-10-04T13:43:41.103Z,9.13
2018-10-04T13:46:15.749Z,8.35
2018-10-04T13:48:50.239Z,8.13
2018-10-04T13:51:24.961Z,6.97
2018-10-04T13:53:59.644Z,10.28
2018-10-04T13:56:33.693Z,8.65
2018-10-04T13:59:07.881Z,10.80
2018-10-04T14:01:41.950Z,7.53
2018-10-04T14:04:22.849Z,8.25
2018-10-04T14:06:58.571Z,8.88
2018-10-04T14:09:33.202Z,10.40
2018-10-04T14:12:07.311Z,10.28
2018-10-04T14:14:41.549Z,11.55
2018-10-04T14:17:16.208Z,10.18
2018-10-04T14:19:50.760Z,9.03
2018-10-04T14:22:25.408Z,6.67
2018-10-04T14:24:59.549Z,6.70
2018-10-04T14:27:34.211Z,10.72
2018-10-04T14:30:08.376Z,9.48
2018-10-04T14:32:42.750Z,9.15
2018-10-04T14:35:16.830Z,10.98
2018-10-04T14:37:51.708Z,10.18
2018-10-04T14:40:25.720Z,11.93
2018-10-04T14:43:00.793Z,10.53
2018-10-04T14:45:35.074Z,9.08
2018-10-04T14:48:09.400Z,7.58
2018-10-04T14:50:44.013Z,8.23
2018-10-04T14:53:18.143Z,9.73
2018-10-04T14:55:52.336Z,7.45
2018-10-04T14:58:26.669Z,8.13
2018-10-04T15:01:01.074Z,11.40
2018-10-04T15:03:36.781Z,10.68
2018-10-04T15:06:11.033Z,7.58
2018-10-04T15:08:45.228Z,10.75
2018-10-04T15:11:19.476Z,9.20
2018-10-04T15:13:55.174Z,8.48
2018-10-04T15:16:29.823Z,10.25
2018-10-04T15:19:04.095Z,8.83
2018-10-04T15:21:38.272Z,8.45
2018-10-04T15:24:15.344Z,9.65
2018-10-04T15:26:49.218Z,8.73
2018-10-04T15:29:23.814Z,9.00
2018-10-04T15:31:57.724Z,6.80
2018-10-04T15:34:32.186Z,8.70
2018-10-04T15:37:06.354Z,6.60
2018-10-04T15:39:40.329Z,9.00
2018-10-04T15:42:14.583Z,6.62
2018-10-04T15:44:48.611Z,11.75
2018-10-04T15:47:23.016Z,7.47
2018-10-04T15:50:13.478Z,10.75
2018-10-04T15:52:47.809Z,7.95
2018-10-04T15:55:21.889Z,7.28
2018-10-04T15:57:56.005Z,6.67
2018-10-04T16:00:30.217Z,8.10
2018-10-04T16:03:04.514Z,9.40
2018-10-04T16:05:38.812Z,7.37
2018-10-04T16:08:12.744Z,8.15
2018-10-04T16:10:47.080Z,6.03
2018-10-04T16:13:21.354Z,6.83
2018-10-04T16:15:57.487Z,8.00
2018-10-04T16:18:31.605Z,6.97
2018-10-04T16:21:05.974Z,7.65
2018-10-04T16:23:40.838Z,7.73
2018-10-04T16:26:16.200Z,8.17
2018-10-04T16:28:50.692Z,7.35
2018-10-04T16:31:24.964Z,6.17
2018-10-04T16:33:59.372Z,8.33
2018-10-04T16:36:33.531Z,9.23
2018-10-04T16:39:08.518Z,10.40
2018-10-04T16:41:42.550Z,8.10
2018-10-04T16:44:18.251Z,8.48
2018-10-04T16:46:52.605Z,7.23
2018-10-04T16:49:26.860Z,11.20
2018-10-04T16:52:01.180Z,6.40
2018-10-04T16:54:35.298Z,8.03
2018-10-04T16:57:10.010Z,7.67
2018-10-04T16:59:44.599Z,7.40
2018-10-04T17:02:18.913Z,7.43
2018-10-04T17:04:53.269Z,7.63
2018-10-04T17:07:27.651Z,10.70
2018-10-04T17:10:02.089Z,9.90
2018-10-04T17:12:36.294Z,8.53
2018-10-04T17:15:10.415Z,8.07
2018-10-04T17:17:44.910Z,9.97
2018-10-04T17:20:19.341Z,13.97
2018-10-04T17:22:53.597Z,16.30
2018-10-04T17:25:27.711Z,11.10
2018-10-04T17:28:02.255Z,15.93
2018-10-04T17:30:36.501Z,16.83
2018-10-04T17:33:10.975Z,11.30
2018-10-04T17:35:45.425Z,12.00
2018-10-04T17:38:19.953Z,13.17
2018-10-04T17:40:54.255Z,13.40
2018-10-04T17:43:28.331Z,12.23
2018-10-04T17:46:04.005Z,12.60
2018-10-04T17:48:38.130Z,14.00
2018-10-04T17:51:12.455Z,13.17
2018-10-04T17:53:47.438Z,13.80
2018-10-04T17:56:21.683Z,16.03
2018-10-04T17:58:55.919Z,15.77
2018-10-04T18:01:30.321Z,13.73
2018-10-04T18:04:04.615Z,15.13
2018-10-04T18:06:44.141Z,13.47
2018-10-04T18:09:19.629Z,10.73
2018-10-04T18:14:14.705Z,11.73
2018-10-04T18:16:48.939Z,15.07
2018-10-04T18:19:23.391Z,12.60
2018-10-04T18:21:57.837Z,13.50
2018-10-04T18:24:32.970Z,18.03
2018-10-04T18:27:07.475Z,18.93
2018-10-04T18:29:41.978Z,19.97
2018-10-04T18:32:16.376Z,20.60
2018-10-04T18:34:50.823Z,22.60
2018-10-04T18:37:25.016Z,21.43
2018-10-04T18:39:59.924Z,20.30
2018-10-04T18:42:34.590Z,20.70
2018-10-04T18:45:08.970Z,19.97
2018-10-04T18:47:44.222Z,19.23
2018-10-04T18:50:18.528Z,17.87
2018-10-04T18:52:53.296Z,18.27
2018-10-04T18:55:27.553Z,19.53
2018-10-04T18:58:02.107Z,20.53
2018-10-04T19:00:37.528Z,18.57
2018-10-04T19:03:11.901Z,20.57
2018-10-04T19:05:46.341Z,19.47
2018-10-04T19:08:20.212Z,25.60
2018-10-04T19:10:54.511Z,23.33
2018-10-04T19:13:28.720Z,22.87
2018-10-04T19:16:02.999Z,19.93
2018-10-04T19:18:37.429Z,19.60
2018-10-04T19:21:11.476Z,19.73
2018-10-04T19:23:46.162Z,16.37
2018-10-04T19:26:20.599Z,16.93
2018-10-04T19:28:55.124Z,15.80
2018-10-04T19:31:29.673Z,18.27
2018-10-04T19:34:03.878Z,15.50
2018-10-04T19:36:38.041Z,15.37
2018-10-04T19:39:12.606Z,17.70
2018-10-04T19:41:47.390Z,14.63
2018-10-04T19:44:22.085Z,14.57
2018-10-04T19:46:56.239Z,14.67
2018-10-04T19:49:30.507Z,13.80
2018-10-04T19:52:05.208Z,15.67
2018-10-04T19:54:39.253Z,17.17
2018-10-04T19:57:13.706Z,15.77
2018-10-04T19:59:48.217Z,12.43
2018-10-04T20:02:22.785Z,13.70
2018-10-04T20:04:57.281Z,16.77
2018-10-04T20:07:31.331Z,13.20
2018-10-04T20:10:06.322Z,13.50
2018-10-04T20:12:40.392Z,13.87
2018-10-04T20:15:14.682Z,12.53
2018-10-04T20:17:49.527Z,20.00
2018-10-04T20:20:23.920Z,20.60
2018-10-04T20:22:58.429Z,20.53
2018-10-04T20:25:32.594Z,22.27
2018-10-04T20:28:06.555Z,19.37
2018-10-04T20:30:41.913Z,23.50
2018-10-04T20:33:16.119Z,21.73
2018-10-04T20:35:50.308Z,20.80
2018-10-04T20:38:24.956Z,20.53
2018-10-04T20:40:59.143Z,22.10
2018-10-04T20:43:34.551Z,20.53
2018-10-04T20:46:08.886Z,19.40
2018-10-04T20:48:43.253Z,21.03
2018-10-04T20:51:17.540Z,17.27
2018-10-04T20:53:51.619Z,18.40
2018-10-04T20:56:25.897Z,15.27
2018-10-04T20:59:00.095Z,18.73
2018-10-04T21:01:34.087Z,18.63
2018-10-04T21:04:08.218Z,18.80
2018-10-04T21:06:42.899Z,18.43
2018-10-04T21:09:17.125Z,17.73
2018-10-04T21:11:52.372Z,18.10
2018-10-04T21:14:26.709Z,14.87
2018-10-04T21:17:01.028Z,15.23
2018-10-04T21:19:35.418Z,18.10
2018-10-04T21:22:09.567Z,17.00
2018-10-04T21:24:43.964Z,14.93
2018-10-04T21:27:18.710Z,11.87
2018-10-04T21:29:52.728Z,14.57
2018-10-04T21:32:26.956Z,17.43
2018-10-04T21:35:00.832Z,14.63
2018-10-04T21:37:35.108Z,17.60
2018-10-04T21:40:10.198Z,19.77
2018-10-04T21:42:44.598Z,13.77
2018-10-04T21:45:18.828Z,17.93
2018-10-04T21:47:54.285Z,16.20
2018-10-04T21:50:28.604Z,15.53
2018-10-04T21:53:02.969Z,16.60
2018-10-04T21:55:37.688Z,17.23
2018-10-04T21:58:12.162Z,15.67
2018-10-04T22:00:51.844Z,13.13
2018-10-04T22:03:26.818Z,12.37
2018-10-04T22:06:00.616Z,13.90
2018-10-04T22:08:34.933Z,14.70
2018-10-04T22:11:09.866Z,14.23
2018-10-04T22:13:44.202Z,14.00
2018-10-04T22:16:18.268Z,13.27
2018-10-04T22:18:53.294Z,14.60
2018-10-04T22:21:27.139Z,16.33
2018-10-04T22:24:01.155Z,12.40
2018-10-04T22:26:36.003Z,16.80
2018-10-04T22:29:10.552Z,12.10
2018-10-04T22:31:44.837Z,13.13
2018-10-04T22:34:19.142Z,12.73
2018-10-04T22:36:53.352Z,13.70
2018-10-04T22:39:27.196Z,13.60
2018-10-04T22:42:01.927Z,15.60
2018-10-04T22:44:37.142Z,12.53
2018-10-04T22:47:11.487Z,12.43
2018-10-04T22:49:45.687Z,12.47
2018-10-04T22:52:19.972Z,11.00
2018-10-04T22:54:54.267Z,11.53
2018-10-04T22:57:28.352Z,13.37
2018-10-04T23:00:02.513Z,14.80
2018-10-04T23:02:37.133Z,13.00
2018-10-04T23:05:10.953Z,11.33
2018-10-04T23:07:45.137Z,13.47
2018-10-04T23:10:19.507Z,14.13
2018-10-04T23:12:53.677Z,10.87
2018-10-04T23:15:27.658Z,14.17
2018-10-04T23:18:01.737Z,11.50
2018-10-04T23:20:35.796Z,11.17
2018-10-04T23:23:10.176Z,13.73
2018-10-04T23:25:43.968Z,12.90
2018-10-04T23:28:18.234Z,11.53
2018-10-04T23:30:52.225Z,12.20
2018-10-04T23:33:26.456Z,10.47
2018-10-04T23:36:00.620Z,10.13
2018-10-04T23:38:34.787Z,10.07
2018-10-04T23:41:09.067Z,13.13
2018-10-04T23:43:44.192Z,11.13
2018-10-04T23:46:18.168Z,13.03
2018-10-04T23:48:52.459Z,12.13
2018-10-04T23:51:26.713Z,11.53
2018-10-04T23:54:01.274Z,14.00
2018-10-04T23:56:35.631Z,12.07
2018-10-04T23:59:10.019Z,12.63
